sensor_id;sensor_type;location;lat;lon;timestamp;temperature;humidity
70762;DHT22;58360;0.000;0.000;2023-04-24T00:01:43;10.60;94.80
70762;DHT22;58360;0.000;0.000;2023-04-24T00:04:09;10.70;95.30
70762;DHT22;58360;0.000;0.000;2023-04-24T00:06:36;10.80;95.10
70762;DHT22;58360;0.000;0.000;2023-04-24T00:09:03;10.80;94.90
70762;DHT22;58360;0.000;0.000;2023-04-24T00:11:30;10.80;94.50
70762;DHT22;58360;0.000;0.000;2023-04-24T00:13:56;10.80;94.90
70762;DHT22;58360;0.000;0.000;2023-04-24T00:16:23;10.90;94.60
70762;DHT22;58360;0.000;0.000;2023-04-24T00:18:48;10.90;94.70
70762;DHT22;58360;0.000;0.000;2023-04-24T00:21:15;10.80;94.10
70762;DHT22;58360;0.000;0.000;2023-04-24T00:23:44;10.70;94.60
70762;DHT22;58360;0.000;0.000;2023-04-24T00:26:10;10.70;94.40
70762;DHT22;58360;0.000;0.000;2023-04-24T00:28:35;10.70;94.60
70762;DHT22;58360;0.000;0.000;2023-04-24T00:31:01;10.80;94.70
70762;DHT22;58360;0.000;0.000;2023-04-24T00:33:27;10.80;94.20
70762;DHT22;58360;0.000;0.000;2023-04-24T00:35:52;10.80;94.20
70762;DHT22;58360;0.000;0.000;2023-04-24T00:38:18;10.80;94.60
70762;DHT22;58360;0.000;0.000;2023-04-24T00:40:44;10.80;94.60
70762;DHT22;58360;0.000;0.000;2023-04-24T00:43:10;10.90;94.10
70762;DHT22;58360;0.000;0.000;2023-04-24T00:45:37;10.90;94.50
70762;DHT22;58360;0.000;0.000;2023-04-24T00:48:03;10.90;94.10
70762;DHT22;58360;0.000;0.000;2023-04-24T00:50:29;10.90;94.10
70762;DHT22;58360;0.000;0.000;2023-04-24T00:52:55;11.00;93.70
70762;DHT22;58360;0.000;0.000;2023-04-24T00:55:21;11.00;93.70
70762;DHT22;58360;0.000;0.000;2023-04-24T00:57:48;11.00;93.90
70762;DHT22;58360;0.000;0.000;2023-04-24T01:00:15;11.00;94.10
70762;DHT22;58360;0.000;0.000;2023-04-24T01:02:43;11.00;93.70
70762;DHT22;58360;0.000;0.000;2023-04-24T01:05:11;11.00;93.50
70762;DHT22;58360;0.000;0.000;2023-04-24T01:07:39;11.00;93.50
70762;DHT22;58360;0.000;0.000;2023-04-24T01:10:07;10.90;93.90
70762;DHT22;58360;0.000;0.000;2023-04-24T01:12:33;10.90;94.00
70762;DHT22;58360;0.000;0.000;2023-04-24T01:14:59;10.90;94.10
70762;DHT22;58360;0.000;0.000;2023-04-24T01:17:25;10.70;94.20
70762;DHT22;58360;0.000;0.000;2023-04-24T01:19:51;10.70;94.60
70762;DHT22;58360;0.000;0.000;2023-04-24T01:22:22;10.70;94.50
70762;DHT22;58360;0.000;0.000;2023-04-24T01:24:48;10.80;94.00
70762;DHT22;58360;0.000;0.000;2023-04-24T01:27:14;10.80;94.30
70762;DHT22;58360;0.000;0.000;2023-04-24T01:29:40;10.80;93.60
70762;DHT22;58360;0.000;0.000;2023-04-24T01:32:06;10.70;93.90
70762;DHT22;58360;0.000;0.000;2023-04-24T01:34:33;10.60;94.10
70762;DHT22;58360;0.000;0.000;2023-04-24T01:36:59;10.60;94.40
70762;DHT22;58360;0.000;0.000;2023-04-24T01:39:25;10.60;94.20
70762;DHT22;58360;0.000;0.000;2023-04-24T01:41:51;10.70;94.40
70762;DHT22;58360;0.000;0.000;2023-04-24T01:44:18;10.70;93.80
70762;DHT22;58360;0.000;0.000;2023-04-24T01:46:44;10.70;94.20
70762;DHT22;58360;0.000;0.000;2023-04-24T01:49:10;10.60;94.50
70762;DHT22;58360;0.000;0.000;2023-04-24T01:51:35;10.60;94.00
70762;DHT22;58360;0.000;0.000;2023-04-24T01:54:04;10.70;94.00
70762;DHT22;58360;0.000;0.000;2023-04-24T01:56:33;10.60;94.20
70762;DHT22;58360;0.000;0.000;2023-04-24T01:59:00;10.70;94.00
70762;DHT22;58360;0.000;0.000;2023-04-24T02:01:29;10.80;93.80
70762;DHT22;58360;0.000;0.000;2023-04-24T02:03:58;10.70;93.90
70762;DHT22;58360;0.000;0.000;2023-04-24T02:06:23;10.70;94.10
70762;DHT22;58360;0.000;0.000;2023-04-24T02:08:49;10.60;93.90
70762;DHT22;58360;0.000;0.000;2023-04-24T02:11:15;10.60;93.90
70762;DHT22;58360;0.000;0.000;2023-04-24T02:13:40;10.50;94.20
70762;DHT22;58360;0.000;0.000;2023-04-24T02:16:06;10.60;94.10
70762;DHT22;58360;0.000;0.000;2023-04-24T02:18:31;10.60;94.10
70762;DHT22;58360;0.000;0.000;2023-04-24T02:20:57;10.50;93.90
70762;DHT22;58360;0.000;0.000;2023-04-24T02:23:23;10.50;94.40
70762;DHT22;58360;0.000;0.000;2023-04-24T02:25:48;10.50;94.30
70762;DHT22;58360;0.000;0.000;2023-04-24T02:28:14;10.50;93.80
70762;DHT22;58360;0.000;0.000;2023-04-24T02:30:40;10.50;93.90
70762;DHT22;58360;0.000;0.000;2023-04-24T02:33:05;10.30;93.90
70762;DHT22;58360;0.000;0.000;2023-04-24T02:35:31;10.50;93.50
70762;DHT22;58360;0.000;0.000;2023-04-24T02:37:57;10.40;94.20
70762;DHT22;58360;0.000;0.000;2023-04-24T02:40:22;10.50;93.90
70762;DHT22;58360;0.000;0.000;2023-04-24T02:42:48;10.50;93.80
70762;DHT22;58360;0.000;0.000;2023-04-24T02:45:17;10.50;93.70
70762;DHT22;58360;0.000;0.000;2023-04-24T02:47:42;10.50;93.60
70762;DHT22;58360;0.000;0.000;2023-04-24T02:50:09;10.40;93.90
70762;DHT22;58360;0.000;0.000;2023-04-24T02:52:34;10.30;94.10
70762;DHT22;58360;0.000;0.000;2023-04-24T02:55:00;10.20;94.40
70762;DHT22;58360;0.000;0.000;2023-04-24T02:57:26;10.20;94.80
70762;DHT22;58360;0.000;0.000;2023-04-24T02:59:51;10.20;94.60
70762;DHT22;58360;0.000;0.000;2023-04-24T03:02:17;10.30;94.90
70762;DHT22;58360;0.000;0.000;2023-04-24T03:04:43;10.20;95.00
70762;DHT22;58360;0.000;0.000;2023-04-24T03:07:08;10.20;94.80
70762;DHT22;58360;0.000;0.000;2023-04-24T03:09:34;10.20;94.60
70762;DHT22;58360;0.000;0.000;2023-04-24T03:12:00;10.20;95.30
70762;DHT22;58360;0.000;0.000;2023-04-24T03:14:25;10.10;95.50
70762;DHT22;58360;0.000;0.000;2023-04-24T03:16:51;10.10;96.10
70762;DHT22;58360;0.000;0.000;2023-04-24T03:19:17;10.10;95.90
70762;DHT22;58360;0.000;0.000;2023-04-24T03:21:42;10.20;96.10
70762;DHT22;58360;0.000;0.000;2023-04-24T03:24:08;10.00;96.20
70762;DHT22;58360;0.000;0.000;2023-04-24T03:26:34;10.10;96.30
70762;DHT22;58360;0.000;0.000;2023-04-24T03:29:00;10.10;96.70
70762;DHT22;58360;0.000;0.000;2023-04-24T03:31:26;10.20;96.50
70762;DHT22;58360;0.000;0.000;2023-04-24T03:33:52;10.20;96.40
70762;DHT22;58360;0.000;0.000;2023-04-24T03:36:17;10.10;96.40
70762;DHT22;58360;0.000;0.000;2023-04-24T03:38:44;10.00;96.70
70762;DHT22;58360;0.000;0.000;2023-04-24T03:41:10;10.00;96.80
70762;DHT22;58360;0.000;0.000;2023-04-24T03:43:37;10.00;97.00
70762;DHT22;58360;0.000;0.000;2023-04-24T03:46:03;10.00;96.40
70762;DHT22;58360;0.000;0.000;2023-04-24T03:48:29;10.10;96.60
70762;DHT22;58360;0.000;0.000;2023-04-24T03:50:54;10.10;96.60
70762;DHT22;58360;0.000;0.000;2023-04-24T03:53:20;10.20;96.60
70762;DHT22;58360;0.000;0.000;2023-04-24T03:55:46;10.10;96.70
70762;DHT22;58360;0.000;0.000;2023-04-24T03:58:12;10.10;96.60
70762;DHT22;58360;0.000;0.000;2023-04-24T04:00:39;10.20;96.40
70762;DHT22;58360;0.000;0.000;2023-04-24T04:03:06;10.20;96.60
70762;DHT22;58360;0.000;0.000;2023-04-24T04:05:31;10.40;96.00
70762;DHT22;58360;0.000;0.000;2023-04-24T04:07:57;10.40;95.80
70762;DHT22;58360;0.000;0.000;2023-04-24T04:10:23;10.30;96.10
70762;DHT22;58360;0.000;0.000;2023-04-24T04:12:48;10.30;96.00
70762;DHT22;58360;0.000;0.000;2023-04-24T04:15:14;10.30;95.70
70762;DHT22;58360;0.000;0.000;2023-04-24T04:17:40;10.30;95.80
70762;DHT22;58360;0.000;0.000;2023-04-24T04:20:06;10.30;95.90
70762;DHT22;58360;0.000;0.000;2023-04-24T04:22:35;10.30;95.80
70762;DHT22;58360;0.000;0.000;2023-04-24T04:25:01;10.30;95.90
70762;DHT22;58360;0.000;0.000;2023-04-24T04:27:27;10.30;96.00
70762;DHT22;58360;0.000;0.000;2023-04-24T04:29:54;10.40;95.80
70762;DHT22;58360;0.000;0.000;2023-04-24T04:32:21;10.40;95.50
70762;DHT22;58360;0.000;0.000;2023-04-24T04:34:47;10.10;95.90
70762;DHT22;58360;0.000;0.000;2023-04-24T04:37:14;10.20;96.10
70762;DHT22;58360;0.000;0.000;2023-04-24T04:39:40;10.10;96.00
70762;DHT22;58360;0.000;0.000;2023-04-24T04:42:06;10.10;96.30
70762;DHT22;58360;0.000;0.000;2023-04-24T04:44:32;10.10;96.40
70762;DHT22;58360;0.000;0.000;2023-04-24T04:46:58;10.10;96.30
70762;DHT22;58360;0.000;0.000;2023-04-24T04:49:25;10.10;96.10
70762;DHT22;58360;0.000;0.000;2023-04-24T04:51:53;10.10;96.40
70762;DHT22;58360;0.000;0.000;2023-04-24T04:54:19;9.90;97.10
70762;DHT22;58360;0.000;0.000;2023-04-24T04:56:45;9.90;96.90
70762;DHT22;58360;0.000;0.000;2023-04-24T04:59:10;10.00;96.30
70762;DHT22;58360;0.000;0.000;2023-04-24T05:01:36;9.90;96.10
70762;DHT22;58360;0.000;0.000;2023-04-24T05:04:02;9.90;96.00
70762;DHT22;58360;0.000;0.000;2023-04-24T05:06:27;9.80;96.30
70762;DHT22;58360;0.000;0.000;2023-04-24T05:08:53;9.70;96.00
70762;DHT22;58360;0.000;0.000;2023-04-24T05:11:22;9.80;96.30
70762;DHT22;58360;0.000;0.000;2023-04-24T05:13:48;9.80;96.60
70762;DHT22;58360;0.000;0.000;2023-04-24T05:16:14;9.80;96.30
70762;DHT22;58360;0.000;0.000;2023-04-24T05:18:39;10.00;96.10
70762;DHT22;58360;0.000;0.000;2023-04-24T05:21:06;9.90;95.90
70762;DHT22;58360;0.000;0.000;2023-04-24T05:23:32;9.90;95.70
70762;DHT22;58360;0.000;0.000;2023-04-24T05:25:58;9.80;95.80
70762;DHT22;58360;0.000;0.000;2023-04-24T05:28:23;9.90;95.90
70762;DHT22;58360;0.000;0.000;2023-04-24T05:30:54;9.90;95.70
70762;DHT22;58360;0.000;0.000;2023-04-24T05:33:20;9.90;95.70
70762;DHT22;58360;0.000;0.000;2023-04-24T05:35:46;9.80;95.60
70762;DHT22;58360;0.000;0.000;2023-04-24T05:38:12;9.70;96.10
70762;DHT22;58360;0.000;0.000;2023-04-24T05:40:39;9.60;96.20
70762;DHT22;58360;0.000;0.000;2023-04-24T05:43:04;9.90;95.50
70762;DHT22;58360;0.000;0.000;2023-04-24T05:45:30;9.80;94.60
70762;DHT22;58360;0.000;0.000;2023-04-24T05:47:57;9.50;94.20
70762;DHT22;58360;0.000;0.000;2023-04-24T05:50:22;9.50;95.50
70762;DHT22;58360;0.000;0.000;2023-04-24T05:52:48;9.60;95.20
70762;DHT22;58360;0.000;0.000;2023-04-24T05:55:14;9.60;95.50
70762;DHT22;58360;0.000;0.000;2023-04-24T05:57:42;9.60;95.10
70762;DHT22;58360;0.000;0.000;2023-04-24T06:00:09;9.70;95.30
70762;DHT22;58360;0.000;0.000;2023-04-24T06:02:39;9.70;95.10
70762;DHT22;58360;0.000;0.000;2023-04-24T06:05:04;9.70;95.20
70762;DHT22;58360;0.000;0.000;2023-04-24T06:07:31;9.70;95.50
70762;DHT22;58360;0.000;0.000;2023-04-24T06:09:57;9.80;95.40
70762;DHT22;58360;0.000;0.000;2023-04-24T06:12:22;9.70;95.30
70762;DHT22;58360;0.000;0.000;2023-04-24T06:14:48;9.70;95.30
70762;DHT22;58360;0.000;0.000;2023-04-24T06:17:14;9.90;95.60
70762;DHT22;58360;0.000;0.000;2023-04-24T06:19:40;10.00;95.20
70762;DHT22;58360;0.000;0.000;2023-04-24T06:22:06;10.10;95.30
70762;DHT22;58360;0.000;0.000;2023-04-24T06:24:31;10.30;95.10
70762;DHT22;58360;0.000;0.000;2023-04-24T06:26:57;10.20;95.20
70762;DHT22;58360;0.000;0.000;2023-04-24T06:29:25;10.20;95.30
70762;DHT22;58360;0.000;0.000;2023-04-24T06:31:50;10.10;95.20
70762;DHT22;58360;0.000;0.000;2023-04-24T06:34:16;10.20;95.40
70762;DHT22;58360;0.000;0.000;2023-04-24T06:36:42;10.10;95.40
70762;DHT22;58360;0.000;0.000;2023-04-24T06:39:07;10.10;95.10
70762;DHT22;58360;0.000;0.000;2023-04-24T06:41:33;10.20;95.30
70762;DHT22;58360;0.000;0.000;2023-04-24T06:43:59;10.00;95.30
70762;DHT22;58360;0.000;0.000;2023-04-24T06:46:24;10.00;95.80
70762;DHT22;58360;0.000;0.000;2023-04-24T06:48:52;10.20;95.50
70762;DHT22;58360;0.000;0.000;2023-04-24T06:51:23;10.10;95.70
70762;DHT22;58360;0.000;0.000;2023-04-24T06:53:49;10.00;96.00
70762;DHT22;58360;0.000;0.000;2023-04-24T06:56:15;10.10;96.30
70762;DHT22;58360;0.000;0.000;2023-04-24T06:58:41;10.20;95.70
70762;DHT22;58360;0.000;0.000;2023-04-24T07:01:07;10.30;95.40
70762;DHT22;58360;0.000;0.000;2023-04-24T07:03:33;10.30;95.70
70762;DHT22;58360;0.000;0.000;2023-04-24T07:05:58;10.20;95.70
70762;DHT22;58360;0.000;0.000;2023-04-24T07:08:24;10.30;95.50
70762;DHT22;58360;0.000;0.000;2023-04-24T07:10:50;10.30;95.80
70762;DHT22;58360;0.000;0.000;2023-04-24T07:13:16;10.20;95.80
70762;DHT22;58360;0.000;0.000;2023-04-24T07:15:43;10.40;95.80
70762;DHT22;58360;0.000;0.000;2023-04-24T07:18:08;10.30;95.20
70762;DHT22;58360;0.000;0.000;2023-04-24T07:20:34;10.20;95.70
70762;DHT22;58360;0.000;0.000;2023-04-24T07:23:00;10.20;95.70
70762;DHT22;58360;0.000;0.000;2023-04-24T07:25:26;10.20;95.10
70762;DHT22;58360;0.000;0.000;2023-04-24T07:27:52;10.10;95.30
70762;DHT22;58360;0.000;0.000;2023-04-24T07:30:18;10.20;95.40
70762;DHT22;58360;0.000;0.000;2023-04-24T07:32:44;10.10;95.00
70762;DHT22;58360;0.000;0.000;2023-04-24T07:35:09;10.10;95.30
70762;DHT22;58360;0.000;0.000;2023-04-24T07:37:36;10.10;94.70
70762;DHT22;58360;0.000;0.000;2023-04-24T07:40:02;10.20;95.00
70762;DHT22;58360;0.000;0.000;2023-04-24T07:42:31;10.40;95.70
70762;DHT22;58360;0.000;0.000;2023-04-24T07:45:01;10.60;94.70
70762;DHT22;58360;0.000;0.000;2023-04-24T07:47:27;10.90;94.90
70762;DHT22;58360;0.000;0.000;2023-04-24T07:50:03;11.10;94.20
70762;DHT22;58360;0.000;0.000;2023-04-24T07:52:28;11.30;93.60
70762;DHT22;58360;0.000;0.000;2023-04-24T07:54:55;11.20;92.60
70762;DHT22;58360;0.000;0.000;2023-04-24T07:57:32;11.20;93.50
70762;DHT22;58360;0.000;0.000;2023-04-24T08:00:01;11.30;93.80
70762;DHT22;58360;0.000;0.000;2023-04-24T08:02:31;11.60;93.20
70762;DHT22;58360;0.000;0.000;2023-04-24T08:04:59;11.60;92.50
70762;DHT22;58360;0.000;0.000;2023-04-24T08:07:25;11.90;91.50
70762;DHT22;58360;0.000;0.000;2023-04-24T08:09:50;11.80;91.70
70762;DHT22;58360;0.000;0.000;2023-04-24T08:12:16;12.20;92.10
70762;DHT22;58360;0.000;0.000;2023-04-24T08:14:42;12.30;91.30
70762;DHT22;58360;0.000;0.000;2023-04-24T08:17:07;12.70;91.20
70762;DHT22;58360;0.000;0.000;2023-04-24T08:19:33;13.20;90.30
70762;DHT22;58360;0.000;0.000;2023-04-24T08:21:59;13.20;87.20
70762;DHT22;58360;0.000;0.000;2023-04-24T08:24:25;12.70;90.30
70762;DHT22;58360;0.000;0.000;2023-04-24T08:26:53;12.40;90.60
70762;DHT22;58360;0.000;0.000;2023-04-24T08:29:22;12.20;90.60
70762;DHT22;58360;0.000;0.000;2023-04-24T08:31:48;11.70;91.50
70762;DHT22;58360;0.000;0.000;2023-04-24T08:34:20;11.70;91.10
70762;DHT22;58360;0.000;0.000;2023-04-24T08:36:46;11.50;92.20
70762;DHT22;58360;0.000;0.000;2023-04-24T08:39:12;11.50;92.00
70762;DHT22;58360;0.000;0.000;2023-04-24T08:41:38;11.40;92.40
70762;DHT22;58360;0.000;0.000;2023-04-24T08:44:09;11.50;92.00
70762;DHT22;58360;0.000;0.000;2023-04-24T08:46:36;11.60;92.10
70762;DHT22;58360;0.000;0.000;2023-04-24T08:49:02;11.80;92.10
70762;DHT22;58360;0.000;0.000;2023-04-24T08:51:31;11.80;92.30
70762;DHT22;58360;0.000;0.000;2023-04-24T08:53:57;12.00;91.80
70762;DHT22;58360;0.000;0.000;2023-04-24T08:56:23;12.20;91.40
70762;DHT22;58360;0.000;0.000;2023-04-24T08:58:53;12.20;90.10
70762;DHT22;58360;0.000;0.000;2023-04-24T09:01:23;12.30;90.90
70762;DHT22;58360;0.000;0.000;2023-04-24T09:03:50;12.50;91.40
70762;DHT22;58360;0.000;0.000;2023-04-24T09:06:17;13.30;88.80
70762;DHT22;58360;0.000;0.000;2023-04-24T09:08:45;13.90;87.10
70762;DHT22;58360;0.000;0.000;2023-04-24T09:11:15;13.90;85.10
70762;DHT22;58360;0.000;0.000;2023-04-24T09:13:41;13.60;85.20
70762;DHT22;58360;0.000;0.000;2023-04-24T09:16:11;13.20;83.60
70762;DHT22;58360;0.000;0.000;2023-04-24T09:18:37;13.10;85.50
70762;DHT22;58360;0.000;0.000;2023-04-24T09:21:08;12.90;85.30
70762;DHT22;58360;0.000;0.000;2023-04-24T09:23:37;12.70;85.10
70762;DHT22;58360;0.000;0.000;2023-04-24T09:26:06;12.40;85.20
70762;DHT22;58360;0.000;0.000;2023-04-24T09:28:40;12.10;86.30
70762;DHT22;58360;0.000;0.000;2023-04-24T09:31:12;12.00;87.00
70762;DHT22;58360;0.000;0.000;2023-04-24T09:33:40;11.70;89.20
70762;DHT22;58360;0.000;0.000;2023-04-24T09:36:09;11.90;89.60
70762;DHT22;58360;0.000;0.000;2023-04-24T09:38:38;12.20;88.50
70762;DHT22;58360;0.000;0.000;2023-04-24T09:41:08;12.40;87.50
70762;DHT22;58360;0.000;0.000;2023-04-24T09:43:38;12.50;86.40
70762;DHT22;58360;0.000;0.000;2023-04-24T09:46:06;12.80;85.80
70762;DHT22;58360;0.000;0.000;2023-04-24T09:48:34;12.90;83.10
70762;DHT22;58360;0.000;0.000;2023-04-24T09:51:01;12.80;83.30
70762;DHT22;58360;0.000;0.000;2023-04-24T09:53:30;12.70;82.80
70762;DHT22;58360;0.000;0.000;2023-04-24T09:55:56;12.80;83.30
70762;DHT22;58360;0.000;0.000;2023-04-24T09:58:25;12.50;84.90
70762;DHT22;58360;0.000;0.000;2023-04-24T10:00:55;13.80;82.90
70762;DHT22;58360;0.000;0.000;2023-04-24T10:03:30;15.70;75.20
70762;DHT22;58360;0.000;0.000;2023-04-24T10:06:03;16.90;73.60
70762;DHT22;58360;0.000;0.000;2023-04-24T10:08:36;18.10;69.80
70762;DHT22;58360;0.000;0.000;2023-04-24T10:11:02;19.10;65.30
70762;DHT22;58360;0.000;0.000;2023-04-24T10:13:28;20.00;60.60
70762;DHT22;58360;0.000;0.000;2023-04-24T10:15:55;20.10;62.20
70762;DHT22;58360;0.000;0.000;2023-04-24T10:18:24;19.50;58.20
70762;DHT22;58360;0.000;0.000;2023-04-24T10:20:53;17.80;59.70
70762;DHT22;58360;0.000;0.000;2023-04-24T10:23:40;17.30;60.70
70762;DHT22;58360;0.000;0.000;2023-04-24T10:26:13;16.70;62.30
70762;DHT22;58360;0.000;0.000;2023-04-24T10:28:53;16.30;63.80
70762;DHT22;58360;0.000;0.000;2023-04-24T10:31:23;15.40;64.50
70762;DHT22;58360;0.000;0.000;2023-04-24T10:33:50;15.90;66.70
70762;DHT22;58360;0.000;0.000;2023-04-24T10:36:17;17.80;64.80
70762;DHT22;58360;0.000;0.000;2023-04-24T10:38:46;19.30;59.00
70762;DHT22;58360;0.000;0.000;2023-04-24T10:41:13;20.60;52.20
70762;DHT22;58360;0.000;0.000;2023-04-24T10:43:45;21.10;51.40
70762;DHT22;58360;0.000;0.000;2023-04-24T10:46:19;21.10;51.10
70762;DHT22;58360;0.000;0.000;2023-04-24T10:48:54;21.20;46.50
70762;DHT22;58360;0.000;0.000;2023-04-24T10:51:22;21.60;46.90
70762;DHT22;58360;0.000;0.000;2023-04-24T10:53:50;22.90;45.30
70762;DHT22;58360;0.000;0.000;2023-04-24T10:56:17;22.90;44.90
70762;DHT22;58360;0.000;0.000;2023-04-24T10:58:44;21.30;45.40
70762;DHT22;58360;0.000;0.000;2023-04-24T11:01:24;20.50;48.20
70762;DHT22;58360;0.000;0.000;2023-04-24T11:04:00;19.30;50.00
70762;DHT22;58360;0.000;0.000;2023-04-24T11:06:30;17.80;53.80
70762;DHT22;58360;0.000;0.000;2023-04-24T11:09:10;17.30;55.10
70762;DHT22;58360;0.000;0.000;2023-04-24T11:11:45;17.30;56.10
70762;DHT22;58360;0.000;0.000;2023-04-24T11:14:14;18.20;56.10
70762;DHT22;58360;0.000;0.000;2023-04-24T11:16:56;19.30;50.90
70762;DHT22;58360;0.000;0.000;2023-04-24T11:19:26;19.10;52.10
70762;DHT22;58360;0.000;0.000;2023-04-24T11:22:00;18.50;54.30
70762;DHT22;58360;0.000;0.000;2023-04-24T11:26:56;17.60;54.30
70762;DHT22;58360;0.000;0.000;2023-04-24T11:29:22;17.10;55.30
70762;DHT22;58360;0.000;0.000;2023-04-24T11:31:48;16.20;55.80
70762;DHT22;58360;0.000;0.000;2023-04-24T11:34:23;15.70;57.50
70762;DHT22;58360;0.000;0.000;2023-04-24T11:36:49;15.70;57.90
70762;DHT22;58360;0.000;0.000;2023-04-24T11:39:25;17.20;55.60
70762;DHT22;58360;0.000;0.000;2023-04-24T11:41:53;17.00;56.40
70762;DHT22;58360;0.000;0.000;2023-04-24T11:44:23;17.20;54.40
70762;DHT22;58360;0.000;0.000;2023-04-24T11:46:50;16.50;55.90
70762;DHT22;58360;0.000;0.000;2023-04-24T11:49:15;16.80;54.00
70762;DHT22;58360;0.000;0.000;2023-04-24T11:51:41;16.30;53.80
70762;DHT22;58360;0.000;0.000;2023-04-24T11:54:07;16.80;54.90
70762;DHT22;58360;0.000;0.000;2023-04-24T11:56:33;18.30;55.20
70762;DHT22;58360;0.000;0.000;2023-04-24T11:59:01;19.90;48.80
70762;DHT22;58360;0.000;0.000;2023-04-24T12:01:29;21.40;46.60
70762;DHT22;58360;0.000;0.000;2023-04-24T12:03:59;22.40;42.80
70762;DHT22;58360;0.000;0.000;2023-04-24T12:06:25;23.00;41.90
70762;DHT22;58360;0.000;0.000;2023-04-24T12:08:52;22.90;41.40
70762;DHT22;58360;0.000;0.000;2023-04-24T12:11:23;23.30;40.50
70762;DHT22;58360;0.000;0.000;2023-04-24T12:13:49;23.60;40.20
70762;DHT22;58360;0.000;0.000;2023-04-24T12:16:14;23.80;39.10
70762;DHT22;58360;0.000;0.000;2023-04-24T12:18:44;22.80;41.20
70762;DHT22;58360;0.000;0.000;2023-04-24T12:21:21;21.20;43.70
70762;DHT22;58360;0.000;0.000;2023-04-24T12:23:48;19.90;44.70
70762;DHT22;58360;0.000;0.000;2023-04-24T12:26:18;19.60;44.50
70762;DHT22;58360;0.000;0.000;2023-04-24T12:28:49;19.40;46.40
70762;DHT22;58360;0.000;0.000;2023-04-24T12:31:16;19.10;47.20
70762;DHT22;58360;0.000;0.000;2023-04-24T12:33:42;18.70;46.40
70762;DHT22;58360;0.000;0.000;2023-04-24T12:36:10;18.20;47.60
70762;DHT22;58360;0.000;0.000;2023-04-24T12:38:37;18.00;48.80
70762;DHT22;58360;0.000;0.000;2023-04-24T12:41:09;17.50;50.30
70762;DHT22;58360;0.000;0.000;2023-04-24T12:43:35;17.40;50.20
70762;DHT22;58360;0.000;0.000;2023-04-24T12:46:01;17.50;50.60
70762;DHT22;58360;0.000;0.000;2023-04-24T12:48:28;17.60;50.00
70762;DHT22;58360;0.000;0.000;2023-04-24T12:50:54;18.10;50.10
70762;DHT22;58360;0.000;0.000;2023-04-24T12:53:20;18.20;50.30
70762;DHT22;58360;0.000;0.000;2023-04-24T12:55:46;18.10;48.10
70762;DHT22;58360;0.000;0.000;2023-04-24T12:58:21;17.00;50.20
70762;DHT22;58360;0.000;0.000;2023-04-24T13:00:47;16.90;52.80
70762;DHT22;58360;0.000;0.000;2023-04-24T13:03:14;17.50;54.20
70762;DHT22;58360;0.000;0.000;2023-04-24T13:05:40;17.70;53.90
70762;DHT22;58360;0.000;0.000;2023-04-24T13:08:06;17.80;54.30
70762;DHT22;58360;0.000;0.000;2023-04-24T13:10:32;18.00;55.10
70762;DHT22;58360;0.000;0.000;2023-04-24T13:12:57;18.40;53.80
70762;DHT22;58360;0.000;0.000;2023-04-24T13:15:23;17.20;54.30
70762;DHT22;58360;0.000;0.000;2023-04-24T13:17:50;17.00;53.30
70762;DHT22;58360;0.000;0.000;2023-04-24T13:20:16;16.70;54.60
70762;DHT22;58360;0.000;0.000;2023-04-24T13:22:42;16.90;53.50
70762;DHT22;58360;0.000;0.000;2023-04-24T13:25:08;17.80;52.50
70762;DHT22;58360;0.000;0.000;2023-04-24T13:27:34;18.90;48.50
70762;DHT22;58360;0.000;0.000;2023-04-24T13:30:00;19.30;47.90
70762;DHT22;58360;0.000;0.000;2023-04-24T13:32:25;18.30;48.50
70762;DHT22;58360;0.000;0.000;2023-04-24T13:34:53;18.30;50.20
70762;DHT22;58360;0.000;0.000;2023-04-24T13:37:18;18.20;49.90
70762;DHT22;58360;0.000;0.000;2023-04-24T13:39:44;19.40;50.20
70762;DHT22;58360;0.000;0.000;2023-04-24T13:42:09;20.70;45.20
70762;DHT22;58360;0.000;0.000;2023-04-24T13:44:36;21.20;43.60
70762;DHT22;58360;0.000;0.000;2023-04-24T13:47:01;21.80;42.10
70762;DHT22;58360;0.000;0.000;2023-04-24T13:49:28;21.30;43.10
70762;DHT22;58360;0.000;0.000;2023-04-24T13:51:55;21.80;43.80
70762;DHT22;58360;0.000;0.000;2023-04-24T13:54:21;21.40;44.80
70762;DHT22;58360;0.000;0.000;2023-04-24T13:56:48;21.10;46.60
70762;DHT22;58360;0.000;0.000;2023-04-24T13:59:14;21.70;45.50
70762;DHT22;58360;0.000;0.000;2023-04-24T14:01:40;21.40;44.80
70762;DHT22;58360;0.000;0.000;2023-04-24T14:04:06;21.20;43.90
70762;DHT22;58360;0.000;0.000;2023-04-24T14:06:31;19.80;44.60
70762;DHT22;58360;0.000;0.000;2023-04-24T14:08:57;18.80;46.00
70762;DHT22;58360;0.000;0.000;2023-04-24T14:11:23;18.60;47.20
70762;DHT22;58360;0.000;0.000;2023-04-24T14:13:49;18.60;47.80
70762;DHT22;58360;0.000;0.000;2023-04-24T14:16:15;18.30;48.80
70762;DHT22;58360;0.000;0.000;2023-04-24T14:18:40;18.20;48.00
70762;DHT22;58360;0.000;0.000;2023-04-24T14:21:06;17.90;48.90
70762;DHT22;58360;0.000;0.000;2023-04-24T14:23:32;18.30;47.40
70762;DHT22;58360;0.000;0.000;2023-04-24T14:25:58;18.80;48.20
70762;DHT22;58360;0.000;0.000;2023-04-24T14:28:24;18.40;47.60
70762;DHT22;58360;0.000;0.000;2023-04-24T14:30:52;18.60;48.00
70762;DHT22;58360;0.000;0.000;2023-04-24T14:33:17;19.10;47.30
70762;DHT22;58360;0.000;0.000;2023-04-24T14:35:43;19.30;46.70
70762;DHT22;58360;0.000;0.000;2023-04-24T14:38:12;19.70;46.80
70762;DHT22;58360;0.000;0.000;2023-04-24T14:40:38;20.30;46.20
70762;DHT22;58360;0.000;0.000;2023-04-24T14:43:07;20.60;44.40
70762;DHT22;58360;0.000;0.000;2023-04-24T14:45:32;20.40;45.00
70762;DHT22;58360;0.000;0.000;2023-04-24T14:47:58;20.50;47.30
70762;DHT22;58360;0.000;0.000;2023-04-24T14:50:24;20.60;43.10
70762;DHT22;58360;0.000;0.000;2023-04-24T14:52:53;19.10;46.50
70762;DHT22;58360;0.000;0.000;2023-04-24T14:55:20;18.00;50.40
70762;DHT22;58360;0.000;0.000;2023-04-24T14:57:46;18.10;50.10
70762;DHT22;58360;0.000;0.000;2023-04-24T15:00:12;17.90;50.80
70762;DHT22;58360;0.000;0.000;2023-04-24T15:02:38;18.00;50.80
70762;DHT22;58360;0.000;0.000;2023-04-24T15:05:07;17.70;50.60
70762;DHT22;58360;0.000;0.000;2023-04-24T15:07:33;18.10;51.30
70762;DHT22;58360;0.000;0.000;2023-04-24T15:10:01;18.60;47.00
70762;DHT22;58360;0.000;0.000;2023-04-24T15:12:27;18.50;47.40
70762;DHT22;58360;0.000;0.000;2023-04-24T15:14:54;18.90;48.10
70762;DHT22;58360;0.000;0.000;2023-04-24T15:17:19;19.30;47.80
70762;DHT22;58360;0.000;0.000;2023-04-24T15:19:45;19.10;47.30
70762;DHT22;58360;0.000;0.000;2023-04-24T15:22:11;18.40;47.50
70762;DHT22;58360;0.000;0.000;2023-04-24T15:24:36;18.30;48.50
70762;DHT22;58360;0.000;0.000;2023-04-24T15:27:02;18.00;51.60
70762;DHT22;58360;0.000;0.000;2023-04-24T15:29:29;17.90;50.50
70762;DHT22;58360;0.000;0.000;2023-04-24T15:31:55;17.70;51.10
70762;DHT22;58360;0.000;0.000;2023-04-24T15:34:23;17.30;53.00
70762;DHT22;58360;0.000;0.000;2023-04-24T15:36:49;17.20;52.50
70762;DHT22;58360;0.000;0.000;2023-04-24T15:39:14;16.80;52.10
70762;DHT22;58360;0.000;0.000;2023-04-24T15:41:40;16.90;51.60
70762;DHT22;58360;0.000;0.000;2023-04-24T15:44:06;16.80;52.60
70762;DHT22;58360;0.000;0.000;2023-04-24T15:46:34;16.80;52.30
70762;DHT22;58360;0.000;0.000;2023-04-24T15:49:00;16.40;52.60